sensor_id;sensor_type;location;lat;lon;timestamp;P1;P2;P0
57798;PMS7003;43626;53.866;30.298;2023-11-22T00:01:48;12;9.8;5
57798;PMS7003;43626;53.866;30.298;2023-11-22T00:06:13;12.6;10.2;5.2
57798;PMS7003;43626;53.866;30.298;2023-11-22T00:11:15;11.6;9.4;4.6
57798;PMS7003;43626;53.866;30.298;2023-11-22T00:16:13;11.2;9;4.4
57798;PMS7003;43626;53.866;30.298;2023-11-22T00:21:57;9.2;7.8;4.6
57798;PMS7003;43626;53.866;30.298;2023-11-22T00:26:43;10;8.2;4.4
57798;PMS7003;43626;53.866;30.298;2023-11-22T00:31:23;11;9;4.6
57798;PMS7003;43626;53.866;30.298;2023-11-22T00:36:35;11;8.2;3.8
57798;PMS7003;43626;53.866;30.298;2023-11-22T00:41:37;10;9.6;4.6
57798;PMS7003;43626;53.866;30.298;2023-11-22T00:46:57;11;9.6;5.6
57798;PMS7003;43626;53.866;30.298;2023-11-22T00:51:47;11.8;10.2;5
57798;PMS7003;43626;53.866;30.298;2023-11-22T00:56:13;9;8.3;4.5
57798;PMS7003;43626;53.866;30.298;2023-11-22T01:01:13;12.6;10.6;5.8
57798;PMS7003;43626;53.866;30.298;2023-11-22T01:06:55;10.6;9.4;5.2
57798;PMS7003;43626;53.866;30.298;2023-11-22T01:11:57;10.8;9.2;5.2
57798;PMS7003;43626;53.866;30.298;2023-11-22T01:16:47;12;9.6;6.2
57798;PMS7003;43626;53.866;30.298;2023-11-22T01:21:23;11.8;11;5.8
57798;PMS7003;43626;53.866;30.298;2023-11-22T01:26:35;9.4;7.8;4.4
57798;PMS7003;43626;53.866;30.298;2023-11-22T01:31:47;11.2;9.6;4.8
57798;PMS7003;43626;53.866;30.298;2023-11-22T01:36:45;10;8.8;4.6
57798;PMS7003;43626;53.866;30.298;2023-11-22T01:41:47;10.8;8.8;5
57798;PMS7003;43626;53.866;30.298;2023-11-22T01:46:47;10.6;8;4.2
57798;PMS7003;43626;53.866;30.298;2023-11-22T01:51:15;9;8;4
57798;PMS7003;43626;53.866;30.298;2023-11-22T01:56:13;9.5;8;4.5
57798;PMS7003;43626;53.866;30.298;2023-11-22T02:01:57;11;8.8;4.2
57798;PMS7003;43626;53.866;30.298;2023-11-22T02:06:25;11.4;9;5
57798;PMS7003;43626;53.866;30.298;2023-11-22T02:11:16;11.2;8.8;4.6
57798;PMS7003;43626;53.866;30.298;2023-11-22T02:16:15;11;8.6;4.8
57798;PMS7003;43626;53.866;30.298;2023-11-22T02:21:47;13.8;12.4;8
57798;PMS7003;43626;53.866;30.298;2023-11-22T02:26:57;12;9;5.4
57798;PMS7003;43626;53.866;30.298;2023-11-22T02:31:45;12;9.6;6.2
57798;PMS7003;43626;53.866;30.298;2023-11-22T02:36:25;14.2;10.8;6.4
57798;PMS7003;43626;53.866;30.298;2023-11-22T02:41:13;10.6;9.2;4.6
57798;PMS7003;43626;53.866;30.298;2023-11-22T02:46:35;13.2;10.4;6.2
57798;PMS7003;43626;53.866;30.298;2023-11-22T02:51:57;10.6;9;4.2
57798;PMS7003;43626;53.866;30.298;2023-11-22T02:56:23;11.8;9.5;5.3
57798;PMS7003;43626;53.866;30.298;2023-11-22T03:01:23;11.4;9.2;5
57798;PMS7003;43626;53.866;30.298;2023-11-22T03:06:35;9.2;8.8;4.8
57798;PMS7003;43626;53.866;30.298;2023-11-22T03:11:27;13.8;9.6;5.4
57798;PMS7003;43626;53.866;30.298;2023-11-22T03:16:57;10.8;8.8;5.6
57798;PMS7003;43626;53.866;30.298;2023-11-22T03:21:47;12.6;10.4;6
57798;PMS7003;43626;53.866;30.298;2023-11-22T03:26:13;11.6;9.4;5.8
57798;PMS7003;43626;53.866;30.298;2023-11-22T03:31:57;16.2;11.4;7.2
57798;PMS7003;43626;53.866;30.298;2023-11-22T03:36:23;10.6;9.6;5.8
57798;PMS7003;43626;53.866;30.298;2023-11-22T03:41:57;11.2;9.6;5.6
57798;PMS7003;43626;53.866;30.298;2023-11-22T03:46:15;13.4;11.4;6
57798;PMS7003;43626;53.866;30.298;2023-11-22T03:51:57;11.8;9.6;5.8
57798;PMS7003;43626;53.866;30.298;2023-11-22T03:56:35;13.4;10.6;5.4
57798;PMS7003;43626;53.866;30.298;2023-11-22T04:01:57;10.5;8.5;3.3
57798;PMS7003;43626;53.866;30.298;2023-11-22T04:06:57;10.2;8.8;4.4
57798;PMS7003;43626;53.866;30.298;2023-11-22T04:11:47;11.6;8.4;5.2
57798;PMS7003;43626;53.866;30.298;2023-11-22T04:16:13;13.4;10.6;6.4
57798;PMS7003;43626;53.866;30.298;2023-11-22T04:21:23;12.6;10;5.2
57798;PMS7003;43626;53.866;30.298;2023-11-22T04:26:37;13;9.8;6.4
57798;PMS7003;43626;53.866;30.298;2023-11-22T04:31:57;11;9.2;5.8
57798;PMS7003;43626;53.866;30.298;2023-11-22T04:36:19;14.4;11.2;7.2
57798;PMS7003;43626;53.866;30.298;2023-11-22T04:41:57;11.8;10.4;6
57798;PMS7003;43626;53.866;30.298;2023-11-22T04:46:15;9.4;7.6;4
57798;PMS7003;43626;53.866;30.298;2023-11-22T04:51:53;12.4;8.2;5
57798;PMS7003;43626;53.866;30.298;2023-11-22T04:56:35;11.8;8.4;5.4
57798;PMS7003;43626;53.866;30.298;2023-11-22T05:01:13;11;8.8;5.3
57798;PMS7003;43626;53.866;30.298;2023-11-22T05:06:13;12.4;9.2;5.2
57798;PMS7003;43626;53.866;30.298;2023-11-22T05:11:37;10.6;7.8;4.6
57798;PMS7003;43626;53.866;30.298;2023-11-22T05:16:57;7;7;4
57798;PMS7003;43626;53.866;30.298;2023-11-22T05:21:45;10;9;5
57798;PMS7003;43626;53.866;30.298;2023-11-22T05:26:43;11.6;9.6;5.2
57798;PMS7003;43626;53.866;30.298;2023-11-22T05:31:13;13.8;9.8;6.2
57798;PMS7003;43626;53.866;30.298;2023-11-22T05:36:15;14.2;12.2;5.8
57798;PMS7003;43626;53.866;30.298;2023-11-22T05:41:37;20.6;14;6.8
57798;PMS7003;43626;53.866;30.298;2023-11-22T05:46:13;31;25;9.6
57798;PMS7003;43626;53.866;30.298;2023-11-22T05:51:13;29.6;21.8;9.2
57798;PMS7003;43626;53.866;30.298;2023-11-22T05:56:15;16.6;14;7.4
57798;PMS7003;43626;53.866;30.298;2023-11-22T06:01:19;19.5;14.5;8.8
57798;PMS7003;43626;53.866;30.298;2023-11-22T06:06:55;15;11.8;7.2
57798;PMS7003;43626;53.866;30.298;2023-11-22T06:11:37;9.8;7.8;5
57798;PMS7003;43626;53.866;30.298;2023-11-22T06:16:43;14.6;11.2;6.6
57798;PMS7003;43626;53.866;30.298;2023-11-22T06:21:21;11.6;9.8;5.4
57798;PMS7003;43626;53.866;30.298;2023-11-22T06:26:57;9.8;8.2;4.8
57798;PMS7003;43626;53.866;30.298;2023-11-22T06:31:55;12.2;9.6;4.8
57798;PMS7003;43626;53.866;30.298;2023-11-22T06:36:35;12;10.6;5.6
57798;PMS7003;43626;53.866;30.298;2023-11-22T06:41:15;14.6;12;7
57798;PMS7003;43626;53.866;30.298;2023-11-22T06:46:15;19.4;16;8.8
57798;PMS7003;43626;53.866;30.298;2023-11-22T06:51:55;19.4;16.2;8.6
57798;PMS7003;43626;53.866;30.298;2023-11-22T06:56:53;18.6;14;7.2
57798;PMS7003;43626;53.866;30.298;2023-11-22T07:01:15;14.8;12;6.3
57798;PMS7003;43626;53.866;30.298;2023-11-22T07:06:45;11.8;9.4;5
57798;PMS7003;43626;53.866;30.298;2023-11-22T07:11:13;16.6;12.6;6.8
57798;PMS7003;43626;53.866;30.298;2023-11-22T07:16:43;12.8;10.6;5.8
57798;PMS7003;43626;53.866;30.298;2023-11-22T07:21:55;14.6;12.6;7.4
57798;PMS7003;43626;53.866;30.298;2023-11-22T07:26:35;16.6;13;7.8
57798;PMS7003;43626;53.866;30.298;2023-11-22T07:31:13;10.4;8.8;5.4
57798;PMS7003;43626;53.866;30.298;2023-11-22T07:36:35;11.4;9.2;5.4
57798;PMS7003;43626;53.866;30.298;2023-11-22T07:41:13;13.2;10.2;5.6
57798;PMS7003;43626;53.866;30.298;2023-11-22T07:46:57;13;10.4;6
57798;PMS7003;43626;53.866;30.298;2023-11-22T07:51:55;18.4;12;8
57798;PMS7003;43626;53.866;30.298;2023-11-22T07:56:43;21.4;17.2;8.2
57798;PMS7003;43626;53.866;30.298;2023-11-22T08:01:15;18.5;16.3;9.5
57798;PMS7003;43626;53.866;30.298;2023-11-22T08:06:43;18.4;15.4;9.4
57798;PMS7003;43626;53.866;30.298;2023-11-22T08:11:55;12;10.8;6.6
57798;PMS7003;43626;53.866;30.298;2023-11-22T08:16:35;12.2;10.2;6.6
57798;PMS7003;43626;53.866;30.298;2023-11-22T08:21:13;13.4;11.6;6.2
57798;PMS7003;43626;53.866;30.298;2023-11-22T08:26:13;16.8;13.4;8
57798;PMS7003;43626;53.866;30.298;2023-11-22T08:31:45;15.4;12;6.8
57798;PMS7003;43626;53.866;30.298;2023-11-22T08:36:55;16.6;12.6;6.8
57798;PMS7003;43626;53.866;30.298;2023-11-22T08:41:49;12.8;11;7
57798;PMS7003;43626;53.866;30.298;2023-11-22T08:46:15;11.4;8.8;4.8
57798;PMS7003;43626;53.866;30.298;2023-11-22T08:51:13;10.4;8.6;5.2
57798;PMS7003;43626;53.866;30.298;2023-11-22T08:56:35;12.2;9.6;6
57798;PMS7003;43626;53.866;30.298;2023-11-22T09:01:57;12;9.8;6
57798;PMS7003;43626;53.866;30.298;2023-11-22T09:06:35;12.8;10.3;6
57798;PMS7003;43626;53.866;30.298;2023-11-22T09:11:13;8.8;8.6;4.8
57798;PMS7003;43626;53.866;30.298;2023-11-22T09:16:15;15.4;11.2;7.4
57798;PMS7003;43626;53.866;30.298;2023-11-22T09:21:15;12.8;11.2;8
57798;PMS7003;43626;53.866;30.298;2023-11-22T09:26:55;16.4;14.4;8
57798;PMS7003;43626;53.866;30.298;2023-11-22T09:31:47;38.2;30;15.6
57798;PMS7003;43626;53.866;30.298;2023-11-22T09:36:45;21;17.6;10
57798;PMS7003;43626;53.866;30.298;2023-11-22T09:41:55;13;10;5.8
57798;PMS7003;43626;53.866;30.298;2023-11-22T09:46:48;15;12.4;6.8
57798;PMS7003;43626;53.866;30.298;2023-11-22T09:51:55;13.6;10.6;6.6
57798;PMS7003;43626;53.866;30.298;2023-11-22T09:56:49;17;12.2;7.4
57798;PMS7003;43626;53.866;30.298;2023-11-22T10:01:25;15;12.8;8.2
57798;PMS7003;43626;53.866;30.298;2023-11-22T10:06:15;15.8;12.3;6.3
57798;PMS7003;43626;53.866;30.298;2023-11-22T10:11:49;11.2;9.2;5.4
57798;PMS7003;43626;53.866;30.298;2023-11-22T10:16:58;14;12;7
57798;PMS7003;43626;53.866;30.298;2023-11-22T10:21:59;12.6;11;6.6
57798;PMS7003;43626;53.866;30.298;2023-11-22T10:26:15;21.4;17.6;10
57798;PMS7003;43626;53.866;30.298;2023-11-22T10:31:21;17.2;14.6;7.6
57798;PMS7003;43626;53.866;30.298;2023-11-22T10:36:35;65.6;45;21
57798;PMS7003;43626;53.866;30.298;2023-11-22T10:41:59;51.8;36;17
57798;PMS7003;43626;53.866;30.298;2023-11-22T10:46:34;18.6;16.8;8.2
57798;PMS7003;43626;53.866;30.298;2023-11-22T10:51:13;33;27.4;14.2
57798;PMS7003;43626;53.866;30.298;2023-11-22T10:56:23;19.6;15.6;8.6
57798;PMS7003;43626;53.866;30.298;2023-11-22T11:01:29;25.2;20.6;11.6
57798;PMS7003;43626;53.866;30.298;2023-11-22T11:06:59;46.3;32.5;16.3
57798;PMS7003;43626;53.866;30.298;2023-11-22T11:11:49;22;18.4;10.4
57798;PMS7003;43626;53.866;30.298;2023-11-22T11:16:43;14.8;10.2;5.4
57798;PMS7003;43626;53.866;30.298;2023-11-22T11:21:13;26.8;22.4;11.8
57798;PMS7003;43626;53.866;30.298;2023-11-22T11:26:15;17.8;15.6;9.6
57798;PMS7003;43626;53.866;30.298;2023-11-22T11:31:38;16.4;12.2;6.8
57798;PMS7003;43626;53.866;30.298;2023-11-22T11:36:16;20.4;15.6;8.2
57798;PMS7003;43626;53.866;30.298;2023-11-22T11:41:41;25.8;20.8;11
57798;PMS7003;43626;53.866;30.298;2023-11-22T11:46:25;24.4;17.8;9.6
57798;PMS7003;43626;53.866;30.298;2023-11-22T11:51:37;22;16.8;9.6
57798;PMS7003;43626;53.866;30.298;2023-11-22T11:56:58;18;14.6;7.6
57798;PMS7003;43626;53.866;30.298;2023-11-22T12:01:47;15.8;13.2;6.8
57798;PMS7003;43626;53.866;30.298;2023-11-22T12:06:43;48.3;37;16.3
57798;PMS7003;43626;53.866;30.298;2023-11-22T12:11:49;62.4;43;20.2
57798;PMS7003;43626;53.866;30.298;2023-11-22T12:16:35;18;14;7.6
57798;PMS7003;43626;53.866;30.298;2023-11-22T12:21:55;18.2;15.6;8.4
57798;PMS7003;43626;53.866;30.298;2023-11-22T12:26:45;29.6;23.2;12.6
57798;PMS7003;43626;53.866;30.298;2023-11-22T12:31:43;19;15.8;9.4
57798;PMS7003;43626;53.866;30.298;2023-11-22T12:36:25;19;15.2;9.2
57798;PMS7003;43626;53.866;30.298;2023-11-22T12:41:46;21;17;10.4
57798;PMS7003;43626;53.866;30.298;2023-11-22T12:46:53;17.2;14.4;8.2
57798;PMS7003;43626;53.866;30.298;2023-11-22T12:51:23;22.2;18.2;9.2
57798;PMS7003;43626;53.866;30.298;2023-11-22T12:56:43;41.6;29.4;13.8
57798;PMS7003;43626;53.866;30.298;2023-11-22T13:01:21;23.4;18.4;9.6
57798;PMS7003;43626;53.866;30.298;2023-11-22T13:06:15;15.3;14;8
57798;PMS7003;43626;53.866;30.298;2023-11-22T13:11:45;40;27.6;13.6
57798;PMS7003;43626;53.866;30.298;2023-11-22T13:16:37;53;37.8;17.4
57798;PMS7003;43626;53.866;30.298;2023-11-22T13:21:15;49.2;34.6;16.4
57798;PMS7003;43626;53.866;30.298;2023-11-22T13:26:13;37.4;28;14.2
57798;PMS7003;43626;53.866;30.298;2023-11-22T13:31:15;38;28.2;13.4
57798;PMS7003;43626;53.866;30.298;2023-11-22T13:36:25;27;18.8;10
57798;PMS7003;43626;53.866;30.298;2023-11-22T13:41:57;24.8;19.6;11.2
57798;PMS7003;43626;53.866;30.298;2023-11-22T13:46:57;45;33.2;16.4
57798;PMS7003;43626;53.866;30.298;2023-11-22T13:51:55;35.2;25.8;12.4
57798;PMS7003;43626;53.866;30.298;2023-11-22T13:56:35;41.6;31.6;16.2
57798;PMS7003;43626;53.866;30.298;2023-11-22T14:01:45;34.2;25;12.2
57798;PMS7003;43626;53.866;30.298;2023-11-22T14:06:13;41.4;31.2;15.6
57798;PMS7003;43626;53.866;30.298;2023-11-22T14:11:27;38;30.8;15
57798;PMS7003;43626;53.866;30.298;2023-11-22T14:16:13;51;36.8;18.6
57798;PMS7003;43626;53.866;30.298;2023-11-22T14:21:15;39;28.2;15.2
57798;PMS7003;43626;53.866;30.298;2023-11-22T14:26:59;59;40.6;17.6
57798;PMS7003;43626;53.866;30.298;2023-11-22T14:31:59;60.8;42;19.8
57798;PMS7003;43626;53.866;30.298;2023-11-22T14:36:25;39.8;30.6;15.6
57798;PMS7003;43626;53.866;30.298;2023-11-22T14:41:59;44.8;35.8;18.2
57798;PMS7003;43626;53.866;30.298;2023-11-22T14:46:35;51.4;37.4;18.8
57798;PMS7003;43626;53.866;30.298;2023-11-22T14:51:45;51.6;37;20.2
57798;PMS7003;43626;53.866;30.298;2023-11-22T14:56:13;55.2;41;23.2
57798;PMS7003;43626;53.866;30.298;2023-11-22T15:01:13;41.8;32.8;17.4
57798;PMS7003;43626;53.866;30.298;2023-11-22T15:06:25;21.6;17.8;10.2
57798;PMS7003;43626;53.866;30.298;2023-11-22T15:11:33;21.5;16.3;8.5
57798;PMS7003;43626;53.866;30.298;2023-11-22T15:16:55;19.2;15.8;9.4
57798;PMS7003;43626;53.866;30.298;2023-11-22T15:21:57;22;18;8.8
57798;PMS7003;43626;53.866;30.298;2023-11-22T15:26:43;31.6;22.4;10.8
57798;PMS7003;43626;53.866;30.298;2023-11-22T15:31:53;30.2;23.2;11.2
57798;PMS7003;43626;53.866;30.298;2023-11-22T15:36:15;28.2;20.6;10.6
57798;PMS7003;43626;53.866;30.298;2023-11-22T15:41:15;19.6;15.8;8.6
57798;PMS7003;43626;53.866;30.298;2023-11-22T15:46:23;21.8;17.8;9.4
57798;PMS7003;43626;53.866;30.298;2023-11-22T15:51:15;16.2;12;7.8
57798;PMS7003;43626;53.866;30.298;2023-11-22T15:56:15;17.8;13.2;7.6
57798;PMS7003;43626;53.866;30.298;2023-11-22T16:01:13;20.8;14.4;8
57798;PMS7003;43626;53.866;30.298;2023-11-22T16:06:59;19.2;14.4;8.2
57798;PMS7003;43626;53.866;30.298;2023-11-22T16:11:55;17.3;12.3;7
57798;PMS7003;43626;53.866;30.298;2023-11-22T16:16:43;25.4;19.8;10
57798;PMS7003;43626;53.866;30.298;2023-11-22T16:21:55;23.4;17.4;9.2
57798;PMS7003;43626;53.866;30.298;2023-11-22T16:26:13;25.2;20.6;11.8
57798;PMS7003;43626;53.866;30.298;2023-11-22T16:31:43;18.4;14.2;8.8
57798;PMS7003;43626;53.866;30.298;2023-11-22T16:36:25;28;23;13.2
57798;PMS7003;43626;53.866;30.298;2023-11-22T16:41:47;39.2;31.8;17.6
57798;PMS7003;43626;53.866;30.298;2023-11-22T16:46:15;71.8;52.8;27.6
57798;PMS7003;43626;53.866;30.298;2023-11-22T16:51:25;19.8;16.6;9.6
57798;PMS7003;43626;53.866;30.298;2023-11-22T16:56:57;22.6;16.4;8.8
57798;PMS7003;43626;53.866;30.298;2023-11-22T17:01:57;21.6;17.8;9
57798;PMS7003;43626;53.866;30.298;2023-11-22T17:06:43;22.2;17.8;10
57798;PMS7003;43626;53.866;30.298;2023-11-22T17:12:00;22.5;19.3;9.8
57798;PMS7003;43626;53.866;30.298;2023-11-22T17:16:47;22.8;16.8;8.8
57798;PMS7003;43626;53.866;30.298;2023-11-22T17:21:58;26.2;18.8;10.2
57798;PMS7003;43626;53.866;30.298;2023-11-22T17:26:15;23;18.4;10
57798;PMS7003;43626;53.866;30.298;2023-11-22T17:31:13;19.4;17.6;8.8
57798;PMS7003;43626;53.866;30.298;2023-11-22T17:36:25;31;25.2;12
57798;PMS7003;43626;53.866;30.298;2023-11-22T17:41:13;26.2;21.6;11.8
57798;PMS7003;43626;53.866;30.298;2023-11-22T17:46:55;32.8;24.4;10.8
57798;PMS7003;43626;53.866;30.298;2023-11-22T17:51:57;30.4;25.6;13.2
57798;PMS7003;43626;53.866;30.298;2023-11-22T17:56:43;35.4;27.2;13.6
57798;PMS7003;43626;53.866;30.298;2023-11-22T18:01:58;24.6;17.8;9.2
57798;PMS7003;43626;53.866;30.298;2023-11-22T18:06:33;24.8;20.4;11.6
57798;PMS7003;43626;53.866;30.298;2023-11-22T18:11:41;27.3;21;12.8
57798;PMS7003;43626;53.866;30.298;2023-11-22T18:16:37;24;18.4;9.8
57798;PMS7003;43626;53.866;30.298;2023-11-22T18:21:31;29;23.6;12
57798;PMS7003;43626;53.866;30.298;2023-11-22T18:26:16;21.4;16.8;8
57798;PMS7003;43626;53.866;30.298;2023-11-22T18:31:47;26.8;20.8;10
57798;PMS7003;43626;53.866;30.298;2023-11-22T18:36:57;21.4;15.4;7.8
57798;PMS7003;43626;53.866;30.298;2023-11-22T18:41:57;25.2;20.4;10.8
57798;PMS7003;43626;53.866;30.298;2023-11-22T18:46:45;30.2;22.4;11
57798;PMS7003;43626;53.866;30.298;2023-11-22T18:51:59;24.2;18.2;9
57798;PMS7003;43626;53.866;30.298;2023-11-22T18:56:24;11.6;9.6;5.4
57798;PMS7003;43626;53.866;30.298;2023-11-22T19:01:45;20.6;14.6;7.2
57798;PMS7003;43626;53.866;30.298;2023-11-22T19:06:51;33.2;25;11.4
57798;PMS7003;43626;53.866;30.298;2023-11-22T19:11:33;23;18.2;8.2
57798;PMS7003;43626;53.866;30.298;2023-11-22T19:16:15;22.8;15.5;8
57798;PMS7003;43626;53.866;30.298;2023-11-22T19:21:24;15.2;11.8;6.2
57798;PMS7003;43626;53.866;30.298;2023-11-22T19:26:55;21.4;16.6;8.6
57798;PMS7003;43626;53.866;30.298;2023-11-22T19:31:43;22.6;19.2;10.8
57798;PMS7003;43626;53.866;30.298;2023-11-22T19:36:33;24.4;19;10
57798;PMS7003;43626;53.866;30.298;2023-11-22T19:41:55;25.6;17;8.6
57798;PMS7003;43626;53.866;30.298;2023-11-22T19:46:13;16.2;13.4;7
57798;PMS7003;43626;53.866;30.298;2023-11-22T19:51:43;21.8;16;7
57798;PMS7003;43626;53.866;30.298;2023-11-22T19:56:35;17.4;13.8;7.2
57798;PMS7003;43626;53.866;30.298;2023-11-22T20:01:31;14;11.8;6.8
57798;PMS7003;43626;53.866;30.298;2023-11-22T20:06:15;12.8;11.2;6
57798;PMS7003;43626;53.866;30.298;2023-11-22T20:11:15;16.6;12.8;7.2
57798;PMS7003;43626;53.866;30.298;2023-11-22T20:16:55;9.8;8.5;5.5
57798;PMS7003;43626;53.866;30.298;2023-11-22T20:21:51;11.4;10.2;5.6
57798;PMS7003;43626;53.866;30.298;2023-11-22T20:26:42;18;13.4;7.8
57798;PMS7003;43626;53.866;30.298;2023-11-22T20:31:53;16.2;14.4;7.2
57798;PMS7003;43626;53.866;30.298;2023-11-22T20:36:13;14.2;10.8;5.6
57798;PMS7003;43626;53.866;30.298;2023-11-22T20:41:41;15.8;12.4;5.8
57798;PMS7003;43626;53.866;30.298;2023-11-22T20:46:33;17.8;13.4;6.4
57798;PMS7003;43626;53.866;30.298;2023-11-22T20:51:15;16;12.2;6.8
57798;PMS7003;43626;53.866;30.298;2023-11-22T20:56:25;11.2;9.4;5.6
57798;PMS7003;43626;53.866;30.298;2023-11-22T21:01:13;20.8;14.8;7.6
57798;PMS7003;43626;53.866;30.298;2023-11-22T21:06:57;21.4;16.4;9
57798;PMS7003;43626;53.866;30.298;2023-11-22T21:11:55;25.4;18.6;10.2
57798;PMS7003;43626;53.866;30.298;2023-11-22T21:16:57;28.3;22.5;11.5
57798;PMS7003;43626;53.866;30.298;2023-11-22T21:21:57;23.8;18.4;9.8
57798;PMS7003;43626;53.866;30.298;2023-11-22T21:26:33;22.2;18.6;10
57798;PMS7003;43626;53.866;30.298;2023-11-22T21:31:43;23;18.4;10.2
57798;PMS7003;43626;53.866;30.298;2023-11-22T21:36:33;24.8;18.2;9.6
57798;PMS7003;43626;53.866;30.298;2023-11-22T21:41:31;22;17.8;9.8
57798;PMS7003;43626;53.866;30.298;2023-11-22T21:46:14;19.2;15.4;8.2
57798;PMS7003;43626;53.866;30.298;2023-11-22T21:51:15;21;15.6;10.2
57798;PMS7003;43626;53.866;30.298;2023-11-22T21:56:57;19.6;17;10
57798;PMS7003;43626;53.866;30.298;2023-11-22T22:01:57;27.2;20;10.4
57798;PMS7003;43626;53.866;30.298;2023-11-22T22:06:17;17.2;14.6;8.6
57798;PMS7003;43626;53.866;30.298;2023-11-22T22:11:55;14.6;11.8;7.6
57798;PMS7003;43626;53.866;30.298;2023-11-22T22:16:33;13.3;10.3;6.3
57798;PMS7003;43626;53.866;30.298;2023-11-22T22:21:51;12.2;9.6;5.4
57798;PMS7003;43626;53.866;30.298;2023-11-22T22:26:14;11;8.6;4.8
57798;PMS7003;43626;53.866;30.298;2023-11-22T22:31:15;12.8;9.8;5.6
57798;PMS7003;43626;53.866;30.298;2023-11-22T22:36:15;10.8;9.2;5
57798;PMS7003;43626;53.866;30.298;2023-11-22T22:41:17;13.4;9.4;4.6
57798;PMS7003;43626;53.866;30.298;2023-11-22T22:46:47;12;10;5.4
57798;PMS7003;43626;53.866;30.298;2023-11-22T22:51:57;11.2;9.6;5.2
57798;PMS7003;43626;53.866;30.298;2023-11-22T22:56:57;11.2;10;6.4
57798;PMS7003;43626;53.866;30.298;2023-11-22T23:01:55;11;8.8;4.8
57798;PMS7003;43626;53.866;30.298;2023-11-22T23:06:31;10.6;9.4;4.8
57798;PMS7003;43626;53.866;30.298;2023-11-22T23:11:15;11.8;9.4;5.4
57798;PMS7003;43626;53.866;30.298;2023-11-22T23:16:13;10.8;9.8;5
57798;PMS7003;43626;53.866;30.298;2023-11-22T23:21:49;11;9;5.2
57798;PMS7003;43626;53.866;30.298;2023-11-22T23:26:25;12;9.8;5.6
57798;PMS7003;43626;53.866;30.298;2023-11-22T23:31:35;10.4;8.2;4.6
57798;PMS7003;43626;53.866;30.298;2023-11-22T23:36:55;11.6;9.4;5.2
57798;PMS7003;43626;53.866;30.298;2023-11-22T23:41:55;11;8.2;4.2
57798;PMS7003;43626;53.866;30.298;2023-11-22T23:46:23;11;8.8;3.8
57798;PMS7003;43626;53.866;30.298;2023-11-22T23:51:55;11;8.6;5.4
57798;PMS7003;43626;53.866;30.298;2023-11-22T23:56:32;10.2;8.4;4.8
